createdAt,value
2023-03-29T00:02:59.523Z,88.44
2023-03-29T00:08:04.584Z,88.64
2023-03-29T00:13:07.797Z,88.69
2023-03-29T00:18:10.702Z,88.77
2023-03-29T00:23:13.604Z,88.90
2023-03-29T00:28:16.612Z,89.32
2023-03-29T00:33:20.928Z,90.20
2023-03-29T00:38:23.855Z,91.24
2023-03-29T00:43:27.274Z,91.90
2023-03-29T00:48:31.457Z,91.23
2023-03-29T00:53:38.609Z,90.53
2023-03-29T00:58:52.168Z,89.89
2023-03-29T01:04:20.980Z,90.02
2023-03-29T01:09:27.268Z,89.83
2023-03-29T01:14:46.245Z,89.82
2023-03-29T01:19:58.352Z,89.90
2023-03-29T01:25:26.880Z,90.04
2023-03-29T01:30:36.461Z,90.62
2023-03-29T01:36:00.060Z,90.99
2023-03-29T01:41:05.449Z,92.41
2023-03-29T01:46:32.003Z,93.39
2023-03-29T01:51:49.485Z,93.25
2023-03-29T01:56:53.908Z,93.18
2023-03-29T02:02:05.029Z,92.50
2023-03-29T02:07:10.746Z,91.73
2023-03-29T02:12:15.842Z,91.17
2023-03-29T02:17:26.263Z,91.37
2023-03-29T02:22:38.755Z,91.36
2023-03-29T02:27:42.433Z,91.54
2023-03-29T02:33:17.636Z,92.90
2023-03-29T02:38:21.869Z,95.25
2023-03-29T02:43:27.594Z,96.14
2023-03-29T02:48:33.980Z,95.20
2023-03-29T02:53:45.044Z,95.29
2023-03-29T02:58:48.030Z,95.06
2023-03-29T03:03:52.228Z,94.55
2023-03-29T03:08:55.579Z,94.60
2023-03-29T03:13:58.586Z,95.28
2023-03-29T03:19:02.214Z,95.93
2023-03-29T03:24:07.683Z,97.31
2023-03-29T03:29:11.505Z,98.22
2023-03-29T03:34:14.516Z,97.70
2023-03-29T03:39:17.504Z,97.30
2023-03-29T03:44:20.723Z,97.00
2023-03-29T03:49:24.538Z,97.80
2023-03-29T03:54:27.616Z,98.20
2023-03-29T03:59:30.964Z,98.77
2023-03-29T04:04:34.438Z,99.58
2023-03-29T04:09:37.895Z,99.88
2023-03-29T04:14:40.903Z,100.00
2023-03-29T04:19:43.826Z,100.00
2023-03-29T04:24:46.913Z,99.95
2023-03-29T04:29:49.823Z,100.00
2023-03-29T04:34:52.826Z,100.00
2023-03-29T04:39:55.941Z,100.00
2023-03-29T04:45:00.644Z,100.00
2023-03-29T04:50:04.062Z,59.60
2023-03-29T04:55:08.260Z,-1.00
2023-03-29T05:00:15.490Z,-1.00
2023-03-29T05:05:18.570Z,33.53
2023-03-29T05:10:22.026Z,81.34
2023-03-29T05:15:24.920Z,74.03
2023-03-29T05:20:28.791Z,69.75
2023-03-29T05:25:32.012Z,64.20
2023-03-29T05:30:35.326Z,60.38
2023-03-29T05:35:38.362Z,57.06
2023-03-29T05:40:41.706Z,55.31
2023-03-29T05:45:44.855Z,52.76
2023-03-29T05:50:52.431Z,50.73
2023-03-29T05:55:57.010Z,49.58
2023-03-29T06:01:00.778Z,48.62
2023-03-29T06:06:04.544Z,47.33
2023-03-29T06:11:11.164Z,46.53
2023-03-29T06:16:15.176Z,45.63
2023-03-29T06:21:18.388Z,45.21
2023-03-29T06:26:21.396Z,44.31
2023-03-29T06:31:24.861Z,44.31
2023-03-29T06:36:27.826Z,43.28
2023-03-29T06:41:31.756Z,43.37
2023-03-29T06:46:35.244Z,42.84
2023-03-29T06:51:38.504Z,43.29
2023-03-29T06:56:41.630Z,42.74
2023-03-29T07:01:45.285Z,42.57
2023-03-29T07:06:51.365Z,42.50
2023-03-29T07:11:54.594Z,42.31
2023-03-29T07:17:01.601Z,42.00
2023-03-29T07:22:04.626Z,42.00
2023-03-29T07:27:08.947Z,41.98
2023-03-29T07:32:12.387Z,41.99
2023-03-29T07:37:15.573Z,41.59
2023-03-29T07:42:18.792Z,41.62
2023-03-29T07:47:23.710Z,42.00
2023-03-29T07:52:28.793Z,41.98
2023-03-29T07:57:32.081Z,41.76
2023-03-29T08:02:35.188Z,42.38
2023-03-29T08:07:40.214Z,42.08
2023-03-29T08:12:44.368Z,42.22
2023-03-29T08:17:47.414Z,42.77
2023-03-29T08:22:50.500Z,42.53
2023-03-29T08:27:53.769Z,42.55
2023-03-29T08:32:57.175Z,42.68
2023-03-29T08:38:00.267Z,42.98
2023-03-29T08:43:37.978Z,43.65
2023-03-29T08:48:54.307Z,45.71
2023-03-29T08:54:05.500Z,46.49
2023-03-29T08:59:23.048Z,45.46
2023-03-29T09:04:33.735Z,44.75
2023-03-29T09:09:37.875Z,44.60
2023-03-29T09:15:10.969Z,45.48
2023-03-29T09:20:59.607Z,45.63
2023-03-29T09:26:13.094Z,46.55
2023-03-29T09:31:23.126Z,46.10
2023-03-29T09:36:36.588Z,45.36
2023-03-29T09:41:46.854Z,45.24
2023-03-29T09:46:59.303Z,46.92
2023-03-29T09:52:09.039Z,46.31
2023-03-29T09:57:15.839Z,46.04
2023-03-29T10:02:21.372Z,46.14
2023-03-29T10:07:34.589Z,47.22
2023-03-29T10:12:37.917Z,46.57
2023-03-29T10:17:41.237Z,45.73
2023-03-29T10:22:56.822Z,45.23
2023-03-29T10:28:05.562Z,43.16
2023-03-29T10:33:19.214Z,42.70
2023-03-29T10:38:28.075Z,41.61
2023-03-29T10:43:39.788Z,40.86
2023-03-29T10:48:48.063Z,41.72
2023-03-29T10:53:51.312Z,41.31
2023-03-29T10:59:14.592Z,40.45
2023-03-29T11:04:28.559Z,42.29
2023-03-29T11:09:57.776Z,42.50
2023-03-29T11:15:08.054Z,42.46
2023-03-29T11:20:27.360Z,40.82
2023-03-29T11:25:47.519Z,39.80
2023-03-29T11:31:04.876Z,40.11
2023-03-29T11:36:25.319Z,41.50
2023-03-29T11:41:33.980Z,40.93
2023-03-29T11:46:43.139Z,41.49
2023-03-29T11:51:54.499Z,40.17
2023-03-29T11:57:05.975Z,39.60
2023-03-29T12:02:40.006Z,40.01
2023-03-29T12:07:51.200Z,40.67
2023-03-29T12:13:21.531Z,40.66
2023-03-29T12:18:30.840Z,40.05
2023-03-29T12:23:34.253Z,40.90
2023-03-29T12:28:37.366Z,40.86
2023-03-29T12:34:02.083Z,40.39
2023-03-29T12:39:05.619Z,40.48
2023-03-29T12:44:15.473Z,40.97
2023-03-29T12:49:25.705Z,41.12
2023-03-29T12:54:32.502Z,39.88
2023-03-29T12:59:39.854Z,39.96
2023-03-29T13:04:42.865Z,39.64
2023-03-29T13:09:53.559Z,39.05
2023-03-29T13:15:00.723Z,39.46
2023-03-29T13:20:22.089Z,39.49
2023-03-29T13:25:37.280Z,39.87
2023-03-29T13:30:57.818Z,39.83
2023-03-29T13:36:10.377Z,40.27
2023-03-29T13:41:39.338Z,40.64
2023-03-29T13:46:44.377Z,41.19
2023-03-29T13:51:53.643Z,40.96
2023-03-29T13:57:05.358Z,40.94
2023-03-29T14:02:21.433Z,41.20
2023-03-29T14:07:26.597Z,41.58
2023-03-29T14:12:36.674Z,41.38
2023-03-29T14:17:41.168Z,42.28
2023-03-29T14:22:44.559Z,42.70
2023-03-29T14:27:47.650Z,43.48
2023-03-29T14:32:51.730Z,43.87
2023-03-29T14:37:55.346Z,44.27
2023-03-29T14:43:02.507Z,44.58
2023-03-29T14:48:06.665Z,44.99
2023-03-29T14:53:18.249Z,44.76
2023-03-29T14:58:24.140Z,44.72
2023-03-29T15:03:27.796Z,45.15
2023-03-29T15:08:34.325Z,45.08
2023-03-29T15:13:42.168Z,44.43
2023-03-29T15:18:47.730Z,45.32
2023-03-29T15:23:55.800Z,45.54
2023-03-29T15:29:23.774Z,46.41
2023-03-29T15:34:29.564Z,47.40
2023-03-29T15:39:32.831Z,48.15
2023-03-29T15:44:38.794Z,49.04
2023-03-29T15:49:42.121Z,49.55
2023-03-29T15:54:45.236Z,50.10
2023-03-29T15:59:48.542Z,50.72
2023-03-29T16:04:52.167Z,50.94
2023-03-29T16:09:55.173Z,51.59
2023-03-29T16:14:58.190Z,52.07
2023-03-29T16:20:01.521Z,52.49
2023-03-29T16:25:11.859Z,52.98
2023-03-29T16:30:15.449Z,53.27
2023-03-29T16:35:27.199Z,54.22
2023-03-29T16:40:30.414Z,54.57
2023-03-29T16:45:33.414Z,55.09
2023-03-29T16:50:36.951Z,55.54
2023-03-29T16:55:40.550Z,55.93
2023-03-29T17:00:46.354Z,56.24
2023-03-29T17:05:53.134Z,56.75
2023-03-29T17:10:56.744Z,57.45
2023-03-29T17:15:59.892Z,57.89
2023-03-29T17:21:03.274Z,58.69
2023-03-29T17:26:07.281Z,59.26
2023-03-29T17:31:10.224Z,59.95
2023-03-29T17:36:13.542Z,60.51
2023-03-29T17:41:17.628Z,60.95
2023-03-29T17:46:23.034Z,61.45
2023-03-29T17:51:27.766Z,61.88
2023-03-29T17:56:31.276Z,62.12
2023-03-29T18:01:35.838Z,62.83
2023-03-29T18:06:40.056Z,63.18
2023-03-29T18:11:43.162Z,63.66
2023-03-29T18:16:47.015Z,63.96
2023-03-29T18:21:50.057Z,63.96
2023-03-29T18:26:53.552Z,64.17
2023-03-29T18:31:56.634Z,64.57
2023-03-29T18:36:59.944Z,64.84
2023-03-29T18:42:03.159Z,65.01
2023-03-29T18:47:07.338Z,65.25
2023-03-29T18:52:10.400Z,65.38
2023-03-29T18:57:13.676Z,65.50
2023-03-29T19:02:16.950Z,65.91
2023-03-29T19:07:22.186Z,66.14
2023-03-29T19:12:25.503Z,66.20
2023-03-29T19:17:28.713Z,66.16
2023-03-29T19:22:34.172Z,65.96
2023-03-29T19:27:37.276Z,65.88
2023-03-29T19:32:40.824Z,65.84
2023-03-29T19:37:44.098Z,65.68
2023-03-29T19:42:48.144Z,66.03
2023-03-29T19:48:02.628Z,66.20
2023-03-29T19:53:06.642Z,66.38
2023-03-29T19:58:09.745Z,66.80
2023-03-29T20:03:14.103Z,67.06
2023-03-29T20:08:17.400Z,67.26
2023-03-29T20:13:31.309Z,67.49
2023-03-29T20:18:38.589Z,67.91
2023-03-29T20:23:42.082Z,68.26
2023-03-29T20:28:45.908Z,68.23
2023-03-29T20:33:49.025Z,68.54
2023-03-29T20:38:52.623Z,68.94
2023-03-29T20:44:00.102Z,69.40
2023-03-29T20:49:08.996Z,69.91
2023-03-29T20:54:12.009Z,69.86
2023-03-29T20:59:15.418Z,70.12
2023-03-29T21:04:18.905Z,70.35
2023-03-29T21:09:23.611Z,70.58
2023-03-29T21:14:26.788Z,70.91
2023-03-29T21:19:30.006Z,71.04
2023-03-29T21:24:34.071Z,71.05
2023-03-29T21:29:37.199Z,71.04
2023-03-29T21:34:40.254Z,70.94
2023-03-29T21:39:43.468Z,70.81
2023-03-29T21:44:46.479Z,70.72
2023-03-29T21:49:49.610Z,70.78
2023-03-29T21:54:52.691Z,70.88
2023-03-29T21:59:57.032Z,70.92
2023-03-29T22:05:00.147Z,70.61
2023-03-29T22:10:05.802Z,70.21
2023-03-29T22:15:13.501Z,69.70
2023-03-29T22:20:18.590Z,68.98
2023-03-29T22:25:22.990Z,68.65
2023-03-29T22:30:25.919Z,68.30
2023-03-29T22:35:28.934Z,67.82
2023-03-29T22:40:33.469Z,67.46
2023-03-29T22:45:36.510Z,66.91
2023-03-29T22:50:43.023Z,66.69
2023-03-29T22:55:46.488Z,66.83
2023-03-29T23:00:50.487Z,66.71
2023-03-29T23:05:55.940Z,66.72
2023-03-29T23:10:59.684Z,66.85
2023-03-29T23:16:03.908Z,66.72
2023-03-29T23:21:09.089Z,66.66
2023-03-29T23:26:12.177Z,67.04
2023-03-29T23:31:19.800Z,67.10
2023-03-29T23:36:23.124Z,67.12
2023-03-29T23:41:28.409Z,67.61
2023-03-29T23:46:32.655Z,67.74
2023-03-29T23:51:36.952Z,68.27
2023-03-29T23:56:40.007Z,68.49
